Time;durP1;ratioP1;P1;durP2;ratioP2;P2;SDS_P1;SDS_P2;PMS_P1;PMS_P2;Temp;Humidity;BMP_temperature;BMP_pressure;BME280_temperature;BME280_humidity;BME280_pressure;Samples;Min_cycle;Max_cycle;Signal;HPM_P1;HPM_P2
2022/11/28 00:01:44;;;;;;;16.25;6.45;;;;;;;;;;6215427;23;20008;-96
2022/11/28 00:04:11;;;;;;;16.75;8.07;;;;;;;;;;6215900;23;20090;-95
2022/11/28 00:06:38;;;;;;;20.30;6.65;;;;;;;;;;6191624;23;20034;-96
2022/11/28 00:09:04;;;;;;;18.33;6.18;;;;;;;;;;6219268;23;20004;-95
2022/11/28 00:11:30;;;;;;;12.20;5.63;;;;;;;;;;6219783;23;20011;-96
2022/11/28 00:13:56;;;;;;;11.57;6.07;;;;;;;;;;6197750;23;20008;-95
2022/11/28 00:16:23;;;;;;;20.85;6.10;;;;;;;;;;6197161;23;20059;-96
2022/11/28 00:18:53;;;;;;;20.90;7.78;;;;;;;;;;6197007;23;20008;-96
2022/11/28 00:21:20;;;;;;;14.85;6.28;;;;;;;;;;6220638;23;20004;-96
2022/11/28 00:23:47;;;;;;;15.48;6.68;;;;;;;;;;6220257;23;20438;-95
2022/11/28 00:26:21;;;;;;;16.67;6.85;;;;;;;;;;6221177;22;20440;-96
2022/11/28 00:28:47;;;;;;;11.82;6.55;;;;;;;;;;6218920;23;20074;-95
2022/11/28 00:31:18;;;;;;;14.48;6.30;;;;;;;;;;6220414;23;20011;-95
2022/11/28 00:33:45;;;;;;;16.08;6.72;;;;;;;;;;6219405;23;20087;-96
2022/11/28 00:36:11;;;;;;;14.63;6.40;;;;;;;;;;6219963;23;20047;-96
2022/11/28 00:38:37;;;;;;;16.63;6.63;;;;;;;;;;6194779;23;20516;-95
2022/11/28 00:41:08;;;;;;;10.63;5.15;;;;;;;;;;6219425;23;20031;-95
2022/11/28 00:43:35;;;;;;;15.32;6.28;;;;;;;;;;6224218;23;20008;-96
2022/11/28 00:46:01;;;;;;;20.15;6.97;;;;;;;;;;6199524;23;20062;-96
2022/11/28 00:48:27;;;;;;;10.15;6.03;;;;;;;;;;6194031;22;20086;-87
2022/11/28 00:50:54;;;;;;;15.90;6.03;;;;;;;;;;6212273;23;20011;-87
2022/11/28 00:53:20;;;;;;;18.65;5.95;;;;;;;;;;6184122;23;20074;-87
2022/11/28 00:55:46;;;;;;;12.45;5.85;;;;;;;;;;6211226;23;20004;-87
2022/11/28 00:58:12;;;;;;;17.13;6.45;;;;;;;;;;6211646;23;20098;-87
2022/11/28 01:00:38;;;;;;;14.15;6.20;;;;;;;;;;6188776;23;20012;-87
2022/11/28 01:03:04;;;;;;;14.02;6.35;;;;;;;;;;6206201;23;20298;-87
2022/11/28 01:05:30;;;;;;;10.07;5.00;;;;;;;;;;6207017;23;20043;-87
2022/11/28 01:07:56;;;;;;;18.52;7.22;;;;;;;;;;6179125;23;20031;-87
2022/11/28 01:10:23;;;;;;;9.90;5.13;;;;;;;;;;6183366;23;20008;-87
2022/11/28 01:12:49;;;;;;;19.08;7.25;;;;;;;;;;6234500;23;20008;-87
2022/11/28 01:15:14;;;;;;;12.48;6.93;;;;;;;;;;6185993;23;20057;-87
2022/11/28 01:17:40;;;;;;;19.15;6.82;;;;;;;;;;6186391;23;20031;-87
2022/11/28 01:20:08;;;;;;;15.30;7.18;;;;;;;;;;6186748;23;20011;-88
2022/11/28 01:22:34;;;;;;;11.60;6.35;;;;;;;;;;6209519;23;20012;-88
2022/11/28 01:25:00;;;;;;;11.75;6.38;;;;;;;;;;6187395;23;20377;-88
2022/11/28 01:27:26;;;;;;;15.02;6.55;;;;;;;;;;6185054;23;20023;-88
2022/11/28 01:29:52;;;;;;;11.13;5.13;;;;;;;;;;6213043;23;20035;-89
2022/11/28 01:32:18;;;;;;;16.88;7.43;;;;;;;;;;6210273;23;20065;-88
2022/11/28 01:34:51;;;;;;;18.13;7.00;;;;;;;;;;6213254;23;20051;-88
2022/11/28 01:37:17;;;;;;;18.67;6.78;;;;;;;;;;6210208;23;20008;-88
2022/11/28 01:39:43;;;;;;;14.73;6.95;;;;;;;;;;6213405;23;20077;-88
2022/11/28 01:42:15;;;;;;;19.13;7.68;;;;;;;;;;6210229;23;20062;-89
2022/11/28 01:44:41;;;;;;;14.88;6.47;;;;;;;;;;6239543;23;20498;-88
2022/11/28 01:47:07;;;;;;;19.15;7.07;;;;;;;;;;6210324;23;20012;-88
2022/11/28 01:49:35;;;;;;;14.70;6.78;;;;;;;;;;6212666;22;20024;-88
2022/11/28 01:52:05;;;;;;;18.60;6.13;;;;;;;;;;6208351;23;20317;-88
2022/11/28 01:54:35;;;;;;;14.75;6.45;;;;;;;;;;6210779;23;20000;-88
2022/11/28 01:57:02;;;;;;;14.10;6.78;;;;;;;;;;6210901;23;20012;-88
2022/11/28 01:59:32;;;;;;;13.93;7.07;;;;;;;;;;6212910;23;20004;-88
2022/11/28 02:01:58;;;;;;;19.92;7.30;;;;;;;;;;6212025;23;20459;-87
2022/11/28 02:04:25;;;;;;;17.45;5.85;;;;;;;;;;6209446;23;20008;-87
2022/11/28 02:06:51;;;;;;;21.08;8.00;;;;;;;;;;6209017;23;20026;-88
2022/11/28 02:09:17;;;;;;;10.68;5.10;;;;;;;;;;6212635;23;20631;-88
2022/11/28 02:12:02;;;;;;;22.75;8.63;;;;;;;;;;6212729;23;20808;-88
2022/11/28 02:14:28;;;;;;;22.05;6.85;;;;;;;;;;6208832;23;20047;-88
2022/11/28 02:17:13;;;;;;;12.15;5.03;;;;;;;;;;6206467;23;20004;-88
2022/11/28 02:19:48;;;;;;;11.77;5.10;;;;;;;;;;6211993;23;20513;-88
2022/11/28 02:22:23;;;;;;;21.65;8.07;;;;;;;;;;6209003;23;20103;-88
2022/11/28 02:24:55;;;;;;;14.27;6.80;;;;;;;;;;6210539;23;20004;-87
2022/11/28 02:27:28;;;;;;;18.02;7.45;;;;;;;;;;6205803;23;20330;-87
2022/11/28 02:29:54;;;;;;;21.65;8.95;;;;;;;;;;6211516;23;20008;-88
2022/11/28 02:32:38;;;;;;;17.33;8.25;;;;;;;;;;6237050;23;20340;-88
2022/11/28 02:35:20;;;;;;;16.83;7.63;;;;;;;;;;6206731;23;20000;-88
2022/11/28 02:38:04;;;;;;;25.00;7.53;;;;;;;;;;6213390;23;20041;-88
2022/11/28 02:40:36;;;;;;;18.35;7.28;;;;;;;;;;6206466;23;20027;-87
2022/11/28 02:43:08;;;;;;;21.40;9.05;;;;;;;;;;6210268;23;20008;-88
2022/11/28 02:45:37;;;;;;;19.45;8.27;;;;;;;;;;6211299;23;20012;-88
2022/11/28 02:48:05;;;;;;;26.85;7.63;;;;;;;;;;6209727;23;20455;-88
2022/11/28 02:50:34;;;;;;;18.70;8.80;;;;;;;;;;6210817;22;20251;-87
2022/11/28 02:53:09;;;;;;;16.63;8.05;;;;;;;;;;6231271;23;20007;-87
2022/11/28 02:55:43;;;;;;;22.60;9.02;;;;;;;;;;6211168;23;20004;-87
2022/11/28 02:58:10;;;;;;;20.80;8.45;;;;;;;;;;6238194;23;20462;-88
2022/11/28 03:00:38;;;;;;;18.02;9.07;;;;;;;;;;6205590;23;20012;-88
2022/11/28 03:03:23;;;;;;;22.60;9.05;;;;;;;;;;6211788;23;20008;-87
2022/11/28 03:05:58;;;;;;;36.17;10.60;;;;;;;;;;6208744;23;20456;-87
2022/11/28 03:08:42;;;;;;;15.23;6.35;;;;;;;;;;6211113;23;20012;-88
2022/11/28 03:11:08;;;;;;;24.27;8.90;;;;;;;;;;6209720;23;20044;-87
2022/11/28 03:13:53;;;;;;;7.25;3.85;;;;;;;;;;6203973;23;20004;-88
2022/11/28 03:16:22;;;;;;;21.90;8.88;;;;;;;;;;6210860;23;20005;-88
2022/11/28 03:19:11;;;;;;;18.17;7.93;;;;;;;;;;6209814;23;20664;-88
2022/11/28 03:21:37;;;;;;;16.25;7.72;;;;;;;;;;6194160;23;20016;-88
2022/11/28 03:24:14;;;;;;;15.95;7.97;;;;;;;;;;6210103;23;20019;-88
2022/11/28 03:26:47;;;;;;;16.88;5.95;;;;;;;;;;6238930;23;20001;-88
2022/11/28 03:29:20;;;;;;;17.88;8.13;;;;;;;;;;6212002;23;20012;-87
2022/11/28 03:32:01;;;;;;;20.35;8.70;;;;;;;;;;6209009;23;20008;-87
2022/11/28 03:34:32;;;;;;;18.98;9.40;;;;;;;;;;6209897;23;20429;-88
2022/11/28 03:37:03;;;;;;;18.35;8.27;;;;;;;;;;6211264;23;20491;-87
2022/11/28 03:39:33;;;;;;;24.63;9.43;;;;;;;;;;6209231;23;20011;-87
2022/11/28 03:42:03;;;;;;;18.40;8.70;;;;;;;;;;6209920;23;20004;-87
2022/11/28 03:44:31;;;;;;;22.73;9.38;;;;;;;;;;6209720;23;20004;-87
2022/11/28 03:46:59;;;;;;;19.83;8.73;;;;;;;;;;6238057;23;20000;-87
2022/11/28 03:49:28;;;;;;;17.33;9.15;;;;;;;;;;6209632;22;20024;-87
2022/11/28 03:51:57;;;;;;;21.40;9.02;;;;;;;;;;6209867;23;20004;-87
2022/11/28 03:54:35;;;;;;;21.15;9.13;;;;;;;;;;6208861;23;20001;-87
2022/11/28 03:57:01;;;;;;;19.92;9.40;;;;;;;;;;6209468;23;20005;-87
2022/11/28 03:59:34;;;;;;;19.17;8.77;;;;;;;;;;6209947;23;20522;-87
2022/11/28 04:02:13;;;;;;;27.13;10.52;;;;;;;;;;6209133;23;20000;-87
2022/11/28 04:04:48;;;;;;;22.35;11.10;;;;;;;;;;6208502;23;20433;-87
2022/11/28 04:07:27;;;;;;;21.98;9.75;;;;;;;;;;6235321;23;20103;-87
2022/11/28 04:10:05;;;;;;;27.70;10.85;;;;;;;;;;6210656;23;20000;-87
2022/11/28 04:12:50;;;;;;;22.48;11.18;;;;;;;;;;6211469;23;20008;-87
2022/11/28 04:15:19;;;;;;;30.20;12.15;;;;;;;;;;6209528;23;20046;-87
2022/11/28 04:17:45;;;;;;;27.95;11.57;;;;;;;;;;6213412;23;20364;-87
2022/11/28 04:20:14;;;;;;;33.60;11.52;;;;;;;;;;6208830;23;19996;-86
2022/11/28 04:22:53;;;;;;;22.73;11.07;;;;;;;;;;6211246;23;20012;-87
2022/11/28 04:25:21;;;;;;;24.48;12.07;;;;;;;;;;6212509;23;20058;-87
2022/11/28 04:27:51;;;;;;;24.63;11.15;;;;;;;;;;6237844;23;20203;-87
2022/11/28 04:30:17;;;;;;;23.85;11.15;;;;;;;;;;6212459;23;20015;-86
2022/11/28 04:32:47;;;;;;;25.85;11.98;;;;;;;;;;6210738;23;20015;-87
2022/11/28 04:35:16;;;;;;;25.42;12.02;;;;;;;;;;6211684;23;20058;-87
2022/11/28 04:37:45;;;;;;;29.10;12.25;;;;;;;;;;6210742;23;20008;-87
2022/11/28 04:40:12;;;;;;;24.80;11.93;;;;;;;;;;6211028;23;20364;-87
2022/11/28 04:42:49;;;;;;;33.20;13.63;;;;;;;;;;6211387;23;20102;-87
2022/11/28 04:45:36;;;;;;;20.45;9.60;;;;;;;;;;6211488;23;20008;-87
2022/11/28 04:48:01;;;;;;;;;;;;;;;;;;6211870;23;20504;-87
2022/11/28 04:50:35;;;;;;;27.83;12.02;;;;;;;;;;6211533;22;19923;-87
2022/11/28 04:53:05;;;;;;;28.30;12.10;;;;;;;;;;6208113;23;20455;-88
2022/11/28 04:55:52;;;;;;;30.60;13.38;;;;;;;;;;6211495;23;20010;-87
2022/11/28 04:58:21;;;;;;;29.55;14.20;;;;;;;;;;6212013;23;20558;-87
2022/11/28 05:00:49;;;;;;;31.95;13.63;;;;;;;;;;6214274;23;20004;-88
2022/11/28 05:03:15;;;;;;;25.73;13.18;;;;;;;;;;6214137;23;20065;-88
2022/11/28 05:05:46;;;;;;;17.02;6.80;;;;;;;;;;6210901;23;20019;-88
2022/11/28 05:08:12;;;;;;;23.20;10.68;;;;;;;;;;6213472;23;20008;-88
2022/11/28 05:10:38;;;;;;;32.47;13.70;;;;;;;;;;6212482;23;20322;-88
2022/11/28 05:13:04;;;;;;;12.48;7.88;;;;;;;;;;6211373;23;20499;-88
2022/11/28 05:15:30;;;;;;;30.17;13.48;;;;;;;;;;6210657;23;20432;-87
2022/11/28 05:17:56;;;;;;;21.55;9.95;;;;;;;;;;6210592;23;20015;-88
2022/11/28 05:20:22;;;;;;;22.30;9.30;;;;;;;;;;6212183;23;20019;-88
2022/11/28 05:22:48;;;;;;;34.45;12.75;;;;;;;;;;6210252;23;20012;-88
2022/11/28 05:25:14;;;;;;;26.88;13.02;;;;;;;;;;6213093;23;20057;-88
2022/11/28 05:27:40;;;;;;;25.98;12.68;;;;;;;;;;6210321;23;20039;-88
2022/11/28 05:30:07;;;;;;;31.58;14.73;;;;;;;;;;6211560;23;20082;-88
2022/11/28 05:32:35;;;;;;;28.13;12.80;;;;;;;;;;6209893;23;20012;-88
2022/11/28 05:35:01;;;;;;;13.85;7.38;;;;;;;;;;6211677;23;20549;-88
2022/11/28 05:37:27;;;;;;;13.95;6.85;;;;;;;;;;6210071;23;20633;-88
2022/11/28 05:39:53;;;;;;;24.48;12.57;;;;;;;;;;6210438;23;20004;-88
2022/11/28 05:42:19;;;;;;;32.55;13.27;;;;;;;;;;6211066;23;20091;-88
2022/11/28 05:44:46;;;;;;;23.63;13.05;;;;;;;;;;6210568;23;20014;-88
2022/11/28 05:47:20;;;;;;;16.45;9.30;;;;;;;;;;6188419;23;20272;-88
2022/11/28 05:49:53;;;;;;;13.65;7.30;;;;;;;;;;6210559;22;20049;-87
2022/11/28 05:52:28;;;;;;;26.25;13.23;;;;;;;;;;6211074;23;20127;-88
2022/11/28 05:54:54;;;;;;;21.90;10.27;;;;;;;;;;6208035;23;20008;-88
2022/11/28 05:57:20;;;;;;;20.08;10.20;;;;;;;;;;6207660;23;20103;-88
2022/11/28 05:59:46;;;;;;;26.05;11.98;;;;;;;;;;6209027;23;20040;-88
2022/11/28 06:02:13;;;;;;;28.95;14.60;;;;;;;;;;6210994;23;20008;-88
2022/11/28 06:04:40;;;;;;;19.83;10.25;;;;;;;;;;6210487;23;20139;-87
2022/11/28 06:07:07;;;;;;;26.98;14.07;;;;;;;;;;6210426;23;20451;-88
2022/11/28 06:09:33;;;;;;;32.10;14.30;;;;;;;;;;6212255;23;20012;-88
2022/11/28 06:11:59;;;;;;;31.42;14.27;;;;;;;;;;6209314;23;20545;-88
2022/11/28 06:14:25;;;;;;;29.55;15.23;;;;;;;;;;6211207;23;20723;-88
2022/11/28 06:16:51;;;;;;;25.15;12.85;;;;;;;;;;6211117;23;20500;-88
2022/11/28 06:19:17;;;;;;;28.50;13.38;;;;;;;;;;6237366;23;20012;-87
2022/11/28 06:21:43;;;;;;;18.00;8.68;;;;;;;;;;6210976;23;20088;-89
2022/11/28 06:24:09;;;;;;;24.83;12.32;;;;;;;;;;6210588;23;20444;-89
2022/11/28 06:26:35;;;;;;;30.63;14.07;;;;;;;;;;6210332;23;20011;-89
2022/11/28 06:29:01;;;;;;;18.23;6.68;;;;;;;;;;6210803;23;20008;-88
2022/11/28 06:31:29;;;;;;;24.98;12.32;;;;;;;;;;6209997;23;20467;-86
2022/11/28 06:33:55;;;;;;;28.25;12.25;;;;;;;;;;6233472;23;20445;-88
2022/11/28 06:36:21;;;;;;;27.88;12.27;;;;;;;;;;6207751;23;20433;-87
2022/11/28 06:38:47;;;;;;;25.92;10.75;;;;;;;;;;6206086;23;20062;-90
2022/11/28 06:41:15;;;;;;;23.85;9.70;;;;;;;;;;6208218;23;20007;-90
2022/11/28 06:43:41;;;;;;;12.35;6.80;;;;;;;;;;6209403;23;20649;-89
2022/11/28 06:46:11;;;;;;;12.75;5.57;;;;;;;;;;6208502;23;20617;-89
2022/11/28 06:48:37;;;;;;;23.67;10.25;;;;;;;;;;6207888;23;20057;-88
2022/11/28 06:51:05;;;;;;;25.08;8.82;;;;;;;;;;6211386;22;20329;-89
2022/11/28 06:53:32;;;;;;;26.33;12.32;;;;;;;;;;6235661;23;20004;-89
2022/11/28 06:55:58;;;;;;;29.23;11.77;;;;;;;;;;6237045;23;20470;-89
2022/11/28 06:58:24;;;;;;;27.42;12.45;;;;;;;;;;6211682;23;20009;-89
2022/11/28 07:00:50;;;;;;;32.63;12.32;;;;;;;;;;6209607;23;20020;-89
2022/11/28 07:03:16;;;;;;;28.15;10.98;;;;;;;;;;6211439;23;20019;-89
2022/11/28 07:05:42;;;;;;;28.25;11.80;;;;;;;;;;6207440;23;20012;-90
2022/11/28 07:08:08;;;;;;;22.08;10.00;;;;;;;;;;6211980;23;20464;-89
2022/11/28 07:10:35;;;;;;;25.63;10.00;;;;;;;;;;6237244;23;20343;-89
2022/11/28 07:13:01;;;;;;;13.45;6.50;;;;;;;;;;6210217;23;20020;-89
2022/11/28 07:15:28;;;;;;;28.25;11.27;;;;;;;;;;6208574;23;20012;-89
2022/11/28 07:17:54;;;;;;;32.08;11.98;;;;;;;;;;6233727;23;20107;-89
2022/11/28 07:20:20;;;;;;;26.10;11.48;;;;;;;;;;6209730;23;20008;-89
2022/11/28 07:22:49;;;;;;;27.05;11.75;;;;;;;;;;6207351;23;20023;-89
2022/11/28 07:25:15;;;;;;;29.00;11.40;;;;;;;;;;6208051;23;20019;-89
2022/11/28 07:27:44;;;;;;;29.17;13.23;;;;;;;;;;6206565;23;20053;-89
2022/11/28 07:30:11;;;;;;;22.15;11.35;;;;;;;;;;6209868;23;20016;-89
2022/11/28 07:32:40;;;;;;;3.47;1.65;;;;;;;;;;6204379;23;20004;-90
2022/11/28 07:35:07;;;;;;;0.00;0.00;;;;;;;;;;6202512;23;20012;-89
2022/11/28 07:37:33;;;;;;;0.00;0.00;;;;;;;;;;6206485;23;20039;-89
2022/11/28 07:40:00;;;;;;;0.20;0.20;;;;;;;;;;6208723;23;20004;-89
2022/11/28 07:42:26;;;;;;;0.00;0.00;;;;;;;;;;6207338;23;20012;-89
2022/11/28 07:44:53;;;;;;;0.10;0.10;;;;;;;;;;6209443;23;20016;-90
2022/11/28 07:47:19;;;;;;;0.00;0.00;;;;;;;;;;6210743;23;20012;-89
2022/11/28 07:49:45;;;;;;;0.00;0.00;;;;;;;;;;6235735;22;20016;-89
2022/11/28 07:52:11;;;;;;;0.00;0.00;;;;;;;;;;6209507;23;20012;-89
2022/11/28 07:54:37;;;;;;;0.35;0.35;;;;;;;;;;6210273;23;20030;-88
2022/11/28 07:57:03;;;;;;;1.38;0.95;;;;;;;;;;6210376;23;20035;-89
2022/11/28 07:59:29;;;;;;;0.00;0.00;;;;;;;;;;6208500;23;20015;-89
2022/11/28 08:01:55;;;;;;;0.00;0.00;;;;;;;;;;6210412;23;20012;-89
2022/11/28 08:04:21;;;;;;;0.00;0.00;;;;;;;;;;6210545;23;20008;-89
2022/11/28 08:06:47;;;;;;;0.00;0.00;;;;;;;;;;6208514;23;20016;-89
2022/11/28 08:09:13;;;;;;;0.00;0.00;;;;;;;;;;6211663;23;20170;-89
2022/11/28 08:11:40;;;;;;;0.00;0.00;;;;;;;;;;6236006;23;20032;-89
2022/11/28 08:14:06;;;;;;;0.05;0.05;;;;;;;;;;6210794;23;20388;-89
2022/11/28 08:16:32;;;;;;;0.00;0.00;;;;;;;;;;6211760;23;20087;-88
2022/11/28 08:19:02;;;;;;;0.25;0.25;;;;;;;;;;6212631;23;20440;-88
2022/11/28 08:21:30;;;;;;;0.00;0.00;;;;;;;;;;6234137;23;20011;-88
2022/11/28 08:23:57;;;;;;;0.38;0.38;;;;;;;;;;6235611;23;20332;-88
2022/11/28 08:26:24;;;;;;;0.25;0.25;;;;;;;;;;6235388;23;20407;-89
2022/11/28 08:28:52;;;;;;;0.40;0.40;;;;;;;;;;6235580;23;20004;-89
2022/11/28 08:31:19;;;;;;;0.00;0.00;;;;;;;;;;6209754;23;20407;-88
2022/11/28 08:33:46;;;;;;;0.43;0.43;;;;;;;;;;6239139;23;20008;-89
2022/11/28 08:36:13;;;;;;;0.47;0.47;;;;;;;;;;6207218;23;20023;-89
2022/11/28 08:38:40;;;;;;;0.00;0.00;;;;;;;;;;6236983;23;20024;-89
2022/11/28 08:41:07;;;;;;;0.00;0.00;;;;;;;;;;6209524;23;20005;-89
2022/11/28 08:43:35;;;;;;;0.30;0.30;;;;;;;;;;6208476;23;20012;-89
2022/11/28 08:46:01;;;;;;;0.00;0.00;;;;;;;;;;6208855;23;20008;-89
2022/11/28 08:48:28;;;;;;;0.00;0.00;;;;;;;;;;6209278;23;20069;-89
2022/11/28 08:51:00;;;;;;;0.00;0.00;;;;;;;;;;6209452;22;20024;-89
2022/11/28 08:53:26;;;;;;;0.00;0.00;;;;;;;;;;6217303;23;20012;-89
2022/11/28 08:55:52;;;;;;;0.00;0.00;;;;;;;;;;6208868;23;20008;-89
2022/11/28 08:58:18;;;;;;;2.92;1.17;;;;;;;;;;6209269;23;20085;-89
2022/11/28 09:00:44;;;;;;;0.00;0.00;;;;;;;;;;6208998;23;20130;-89
2022/11/28 09:03:14;;;;;;;0.00;0.00;;;;;;;;;;6210358;23;20008;-89
2022/11/28 09:05:41;;;;;;;0.08;0.08;;;;;;;;;;6234258;23;20008;-89
2022/11/28 09:08:07;;;;;;;0.00;0.00;;;;;;;;;;6209225;23;20018;-89
2022/11/28 09:10:35;;;;;;;0.28;0.28;;;;;;;;;;6234622;23;20098;-89
2022/11/28 09:13:01;;;;;;;0.00;0.00;;;;;;;;;;6209722;23;20008;-89
2022/11/28 09:15:27;;;;;;;0.00;0.00;;;;;;;;;;6205775;23;20214;-89
2022/11/28 09:17:53;;;;;;;0.00;0.00;;;;;;;;;;6208083;23;20507;-89
2022/11/28 09:20:20;;;;;;;0.00;0.00;;;;;;;;;;6206491;23;20454;-89
2022/11/28 09:22:46;;;;;;;0.00;0.00;;;;;;;;;;6206815;23;20028;-89
2022/11/28 09:25:13;;;;;;;0.00;0.00;;;;;;;;;;6207422;23;20039;-89
2022/11/28 09:27:39;;;;;;;0.00;0.00;;;;;;;;;;6207212;23;20098;-89
2022/11/28 09:30:06;;;;;;;0.00;0.00;;;;;;;;;;6209172;23;20008;-89
2022/11/28 09:32:32;;;;;;;0.00;0.00;;;;;;;;;;6233677;23;20003;-88
2022/11/28 09:34:58;;;;;;;0.00;0.00;;;;;;;;;;6234912;23;20070;-89
2022/11/28 09:37:24;;;;;;;0.00;0.00;;;;;;;;;;6206828;23;20433;-89
2022/11/28 09:39:50;;;;;;;0.00;0.00;;;;;;;;;;6206781;23;20058;-89
2022/11/28 09:42:40;;;;;;;0.00;0.00;;;;;;;;;;6208500;23;20123;-88
2022/11/28 09:45:10;;;;;;;0.00;0.00;;;;;;;;;;6207388;23;20047;-89
2022/11/28 09:47:37;;;;;;;0.05;0.05;;;;;;;;;;6206973;23;20463;-89
2022/11/28 09:50:09;;;;;;;0.00;0.00;;;;;;;;;;6208316;22;20051;-89
2022/11/28 09:52:47;;;;;;;0.00;0.00;;;;;;;;;;6204105;23;20008;-89
2022/11/28 09:55:19;;;;;;;0.00;0.00;;;;;;;;;;6231190;23;20447;-89
2022/11/28 09:57:49;;;;;;;0.00;0.00;;;;;;;;;;6205316;23;20004;-89
2022/11/28 10:00:21;;;;;;;0.00;0.00;;;;;;;;;;6234202;23;20344;-89
2022/11/28 10:02:59;;;;;;;0.43;0.43;;;;;;;;;;6231090;23;20018;-89
2022/11/28 10:05:25;;;;;;;0.00;0.00;;;;;;;;;;6205356;23;20012;-90
2022/11/28 10:08:09;;;;;;;0.00;0.00;;;;;;;;;;6206618;23;20019;-90
2022/11/28 10:10:42;;;;;;;0.00;0.00;;;;;;;;;;6207552;23;20008;-89
2022/11/28 10:13:27;;;;;;;0.20;0.20;;;;;;;;;;6205101;23;20236;-89
2022/11/28 10:16:05;;;;;;;0.00;0.00;;;;;;;;;;6206534;23;20393;-89
2022/11/28 10:18:34;;;;;;;0.00;0.00;;;;;;;;;;6206023;23;20301;-89
2022/11/28 10:21:03;;;;;;;0.00;0.00;;;;;;;;;;6235480;23;20369;-89
2022/11/28 10:23:32;;;;;;;0.00;0.00;;;;;;;;;;6205787;23;20326;-89
2022/11/28 10:26:04;;;;;;;0.00;0.00;;;;;;;;;;6207278;23;20016;-90
2022/11/28 10:28:51;;;;;;;0.00;0.00;;;;;;;;;;6207484;23;20506;-89
2022/11/28 10:31:17;;;;;;;0.00;0.00;;;;;;;;;;6207031;23;20014;-89
2022/11/28 10:33:46;;;;;;;0.00;0.00;;;;;;;;;;6204098;23;20043;-89
2022/11/28 10:36:16;;;;;;;0.00;0.00;;;;;;;;;;6208046;23;20369;-89
2022/11/28 10:38:42;;;;;;;0.00;0.00;;;;;;;;;;6203944;23;20015;-89
2022/11/28 10:41:14;;;;;;;0.00;0.00;;;;;;;;;;6207371;23;20012;-89
2022/11/28 10:43:45;;;;;;;0.00;0.00;;;;;;;;;;6207383;23;20011;-89
2022/11/28 10:46:11;;;;;;;0.00;0.00;;;;;;;;;;6205067;23;20012;-89
2022/11/28 10:48:42;;;;;;;0.00;0.00;;;;;;;;;;6208088;23;20182;-89
2022/11/28 10:51:27;;;;;;;0.00;0.00;;;;;;;;;;6234108;22;20082;-89
2022/11/28 10:54:02;;;;;;;0.00;0.00;;;;;;;;;;6208820;23;20009;-89
2022/11/28 10:56:40;;;;;;;0.00;0.00;;;;;;;;;;6207747;23;20008;-89
2022/11/28 10:59:12;;;;;;;0.00;0.00;;;;;;;;;;6208773;23;20486;-89
2022/11/28 11:01:39;;;;;;;0.00;0.00;;;;;;;;;;6208107;23;20106;-89
2022/11/28 11:04:09;;;;;;;0.00;0.00;;;;;;;;;;6206606;23;20012;-89
2022/11/28 11:06:37;;;;;;;0.00;0.00;;;;;;;;;;6208434;23;20142;-90
2022/11/28 11:09:04;;;;;;;0.00;0.00;;;;;;;;;;6206505;23;20571;-89
2022/11/28 11:11:34;;;;;;;0.05;0.05;;;;;;;;;;6208526;23;20504;-89
2022/11/28 11:14:00;;;;;;;0.00;0.00;;;;;;;;;;6209773;23;20486;-89
2022/11/28 11:16:26;;;;;;;0.08;0.08;;;;;;;;;;6233483;23;20415;-89
2022/11/28 11:18:54;;;;;;;0.00;0.00;;;;;;;;;;6208077;23;20008;-89
2022/11/28 11:21:25;;;;;;;0.00;0.00;;;;;;;;;;6209797;23;20455;-89
2022/11/28 11:24:10;;;;;;;0.00;0.00;;;;;;;;;;6209260;23;20098;-89
2022/11/28 11:26:42;;;;;;;0.00;0.00;;;;;;;;;;6212100;23;20011;-89
2022/11/28 11:29:19;;;;;;;0.00;0.00;;;;;;;;;;6209466;23;20767;-89
2022/11/28 11:31:49;;;;;;;0.00;0.00;;;;;;;;;;6212080;23;20004;-89
2022/11/28 11:34:17;;;;;;;0.00;0.00;;;;;;;;;;6207214;23;20046;-88
2022/11/28 11:36:43;;;;;;;0.10;0.10;;;;;;;;;;6211129;23;20091;-89
2022/11/28 11:39:09;;;;;;;0.00;0.00;;;;;;;;;;6206510;23;20004;-89
2022/11/28 11:41:36;;;;;;;0.00;0.00;;;;;;;;;;6210089;23;20004;-89
2022/11/28 11:44:14;;;;;;;0.75;0.75;;;;;;;;;;6209506;23;20015;-89
2022/11/28 11:47:02;;;;;;;0.00;0.00;;;;;;;;;;6207247;23;20008;-88
2022/11/28 11:49:40;;;;;;;0.00;0.00;;;;;;;;;;6205745;23;20008;-89
2022/11/28 11:52:17;;;;;;;0.00;0.00;;;;;;;;;;6207120;23;20364;-89
2022/11/28 11:54:46;;;;;;;0.00;0.00;;;;;;;;;;6232631;23;20079;-88
2022/11/28 11:57:13;;;;;;;0.00;0.00;;;;;;;;;;6235828;23;20003;-88
2022/11/28 11:59:41;;;;;;;0.00;0.00;;;;;;;;;;6207016;23;20433;-89
2022/11/28 12:02:26;;;;;;;0.00;0.00;;;;;;;;;;6208560;23;20464;-89
2022/11/28 12:04:59;;;;;;;0.00;0.00;;;;;;;;;;6208766;23;20000;-89
2022/11/28 12:07:32;;;;;;;0.00;0.00;;;;;;;;;;6207018;23;20078;-89
2022/11/28 12:09:59;;;;;;;0.00;0.00;;;;;;;;;;6237659;23;20004;-89
2022/11/28 12:12:28;;;;;;;0.00;0.00;;;;;;;;;;6210313;23;20100;-89
2022/11/28 12:14:54;;;;;;;0.00;0.00;;;;;;;;;;6207691;23;20008;-88
2022/11/28 12:17:41;;;;;;;0.00;0.00;;;;;;;;;;6237671;23;20024;-88
2022/11/28 12:20:25;;;;;;;0.00;0.00;;;;;;;;;;6207468;23;20030;-88
2022/11/28 12:22:54;;;;;;;0.08;0.08;;;;;;;;;;6207427;23;20008;-89
2022/11/28 12:25:39;;;;;;;0.00;0.00;;;;;;;;;;6210186;23;20008;-88
2022/11/28 12:28:14;;;;;;;0.00;0.00;;;;;;;;;;6207385;23;20019;-88
2022/11/28 12:30:55;;;;;;;0.00;0.00;;;;;;;;;;6209506;23;20036;-89
2022/11/28 12:33:41;;;;;;;0.00;0.00;;;;;;;;;;6208613;23;20299;-88
2022/11/28 12:36:07;;;;;;;0.00;0.00;;;;;;;;;;6208562;23;20054;-88
2022/11/28 12:38:42;;;;;;;0.00;0.00;;;;;;;;;;6208946;23;20398;-88
2022/11/28 12:41:35;;;;;;;0.00;0.00;;;;;;;;;;6235723;23;20189;-88
2022/11/28 12:44:26;;;;;;;0.00;0.00;;;;;;;;;;6164244;23;20231;-88
2022/11/28 12:46:52;;;;;;;0.10;0.10;;;;;;;;;;6210510;23;20039;-88
2022/11/28 12:49:25;;;;;;;0.00;0.00;;;;;;;;;;6206669;23;20008;-88
2022/11/28 12:52:14;;;;;;;0.00;0.00;;;;;;;;;;6211871;22;20016;-89
2022/11/28 12:54:47;;;;;;;0.00;0.00;;;;;;;;;;6192921;23;20096;-89
2022/11/28 12:57:16;;;;;;;0.00;0.00;;;;;;;;;;6236150;23;20004;-89
2022/11/28 12:59:42;;;;;;;0.00;0.00;;;;;;;;;;6209287;23;20432;-88
2022/11/28 13:02:26;;;;;;;0.00;0.00;;;;;;;;;;6209914;23;20204;-89
2022/11/28 13:05:11;;;;;;;0.08;0.08;;;;;;;;;;6237026;23;20000;-89
2022/11/28 13:07:53;;;;;;;0.00;0.00;;;;;;;;;;6208915;23;20432;-89
2022/11/28 13:10:31;;;;;;;0.00;0.00;;;;;;;;;;6209538;23;20103;-89
2022/11/28 13:13:02;;;;;;;0.00;0.00;;;;;;;;;;6211347;23;20594;-89
2022/11/28 13:15:32;;;;;;;0.00;0.00;;;;;;;;;;6209897;23;20364;-88
2022/11/28 13:18:08;;;;;;;0.00;0.00;;;;;;;;;;6209750;23;20004;-89
2022/11/28 13:20:50;;;;;;;0.00;0.00;;;;;;;;;;6210308;23;20015;-89
2022/11/28 13:23:20;;;;;;;0.00;0.00;;;;;;;;;;6210230;23;20425;-88
2022/11/28 13:25:50;;;;;;;0.00;0.00;;;;;;;;;;6236982;23;20000;-89
2022/11/28 13:28:38;;;;;;;0.00;0.00;;;;;;;;;;6210911;23;20008;-88
2022/11/28 13:31:27;;;;;;;0.00;0.00;;;;;;;;;;6209017;23;20373;-89
2022/11/28 13:33:54;;;;;;;0.00;0.00;;;;;;;;;;6207861;23;20286;-89
2022/11/28 13:36:39;;;;;;;0.00;0.00;;;;;;;;;;6208173;23;20012;-89
2022/11/28 13:39:21;;;;;;;0.00;0.00;;;;;;;;;;6233422;23;20035;-89
2022/11/28 13:42:06;;;;;;;0.00;0.00;;;;;;;;;;6208426;23;20044;-89
2022/11/28 13:44:52;;;;;;;0.00;0.00;;;;;;;;;;6210564;23;20604;-88
2022/11/28 13:47:21;;;;;;;0.00;0.00;;;;;;;;;;6209948;23;20017;-89
2022/11/28 13:49:47;;;;;;;0.00;0.00;;;;;;;;;;6232687;23;20467;-88
2022/11/28 13:52:16;;;;;;;0.00;0.00;;;;;;;;;;6210114;22;20019;-89
2022/11/28 13:54:43;;;;;;;0.00;0.00;;;;;;;;;;6206253;23;20333;-89
2022/11/28 13:57:25;;;;;;;0.00;0.00;;;;;;;;;;6210097;23;20436;-89
2022/11/28 13:59:53;;;;;;;0.00;0.00;;;;;;;;;;6210702;23;20445;-89
2022/11/28 14:02:39;;;;;;;0.00;0.00;;;;;;;;;;6213141;23;20451;-90
2022/11/28 14:05:05;;;;;;;;;;;;;;;;;;6211518;23;20095;-89
2022/11/28 14:07:33;;;;;;;0.00;0.00;;;;;;;;;;6238716;23;19934;-88
2022/11/28 14:10:18;;;;;;;0.00;0.00;;;;;;;;;;6213114;23;20004;-89
2022/11/28 14:13:03;;;;;;;0.00;0.00;;;;;;;;;;6240057;23;20023;-88
2022/11/28 14:15:31;;;;;;;0.10;0.10;;;;;;;;;;6213566;23;20087;-89
2022/11/28 14:18:17;;;;;;;0.00;0.00;;;;;;;;;;6212646;23;20460;-88
2022/11/28 14:20:52;;;;;;;0.00;0.00;;;;;;;;;;6213612;23;20004;-89
2022/11/28 14:23:47;;;;;;;0.00;0.00;;;;;;;;;;6210922;23;20008;-89
2022/11/28 14:26:24;;;;;;;0.00;0.00;;;;;;;;;;6236836;23;20087;-89
2022/11/28 14:28:51;;;;;;;0.00;0.00;;;;;;;;;;6208475;23;20036;-89
2022/11/28 14:31:20;;;;;;;0.00;0.00;;;;;;;;;;6208890;23;20008;-89
2022/11/28 14:33:47;;;;;;;0.10;0.10;;;;;;;;;;6207213;23;20008;-89
2022/11/28 14:36:22;;;;;;;0.00;0.00;;;;;;;;;;6210114;23;20008;-89
2022/11/28 14:39:12;;;;;;;0.00;0.00;;;;;;;;;;6209072;23;20036;-89
2022/11/28 14:41:57;;;;;;;0.00;0.00;;;;;;;;;;6209784;23;20004;-89
2022/11/28 14:44:44;;;;;;;0.00;0.00;;;;;;;;;;6208498;23;20432;-89
2022/11/28 14:47:14;;;;;;;0.00;0.00;;;;;;;;;;6236273;23;20386;-89
2022/11/28 14:49:40;;;;;;;0.00;0.00;;;;;;;;;;6205825;23;20015;-89
2022/11/28 14:52:07;;;;;;;0.00;0.00;;;;;;;;;;6209646;22;20476;-89
2022/11/28 14:54:36;;;;;;;0.10;0.10;;;;;;;;;;6205955;23;20020;-89